Annapolis, California
Current Conditions -  °F | °C
As of 1:56 AM on Monday 26 Jan 2015 (Local Time) from KUKI Reporting Station
Clear Clear  
Wind Chill: 42°   Ceiling: Unl
Heat Index: 42°   Visibility: 10mi
Dew Point: 39°   Wind: 0mph
Humidity: 89%   Direction: NA
Pressure: 30.08"   Gusts: NA
Location:  38.71°N, 123.35°W
Report Text: KUKI 260956Z AUTO 00000KT 10SM CLR 06/04 A3008 RMK AO2 SLP180 T00560039
Loading
Personal Weather Stations






























Interactive Weather Map New forecast layout! Learn more

10-Day Weather Forecast

Advertisements
Track Severe Weather on mobile